首页
METAR-TAF:

METAR-TAF

机场 :

Ali Al Salem Air Base, 科威特

纬度: 29-20-48N, 经度: 47-31-14E, 海拔: 144米

当前天气观测

该预报发布于32分钟前的15:55 UTC
风速9节,风向东转东北
温度 17°C
湿度 63%
气压 1015 hPa
能见度10公里或以上
散云层高于18000英尺

METAR: OKAS 121555Z 07009KT 9999 SCT180 17/10 A2996 RMK AO2A SLP145 WND DATA ESTMD T01720102

时间: 19:27 (16:27 UTC)

预报

该预报发布于1小时和27分钟前的15:00 UTC
预报有效从12日的 15点(UTC)到 13日的 21点(UTC)
风速9节,风向
能见度10公里或以上
少量云层高于20000英尺
成为
从 12日的 15点(UTC)到 12日的 16点(UTC)
风速9节,风向
能见度10公里或以上
散云层高于8000英尺
多云层高于12000英尺
成为
从 12日的 19点(UTC)到 12日的 20点(UTC)
风速12节,风向东转东南
能見度: 8000
多云层高于8000英尺
阴天层高于12000英尺
小阵雨
短暂存在
从 12日的 21点(UTC)到 13日的 01点(UTC)
多云层高于5000英尺, 积雨云.
附近有雷暴
成为
从 13日的 03点(UTC)到 13日的 04点(UTC)
风速10节,风向南转南东,有时为15节阵风
能见度10公里或以上
少量云层高于8000英尺
散云层高于12000英尺

TAF: OKAS 121500Z 1215/1321 09009KT 9999 FEW200 QNH2999INS BECMG 1215/1216 09009KT 9999 SCT080 BKN120 QNH2996INS BECMG 1219/1220 12012KT 8000 -SHRA BKN080 OVC120 QNH2988INS TEMPO 1221/1301 VCTS BKN050CB BECMG 1303/1304 15010G15KT 9999 NSW FEW080 SCT120 QNH2987INS TX22/1312Z TN11/1302Z

超过4000个机场的气象观测和天气预报(METAR&TAF报告)。

可查询的气象台以黄色和红色小点在地图上表示。

将鼠标移到小点上方,可查看气象台名称。

然后点击查看天气观测和预报。

如需切换地图:点击带黑十字的绿色按钮放大地图;点击带横线的绿色按钮缩小地图;或者点击绿色箭头查看邻近地区的地图。


METAR-TAF: